sensor_id;sensor_type;location;lat;lon;timestamp;P1;durP1;ratioP1;P2;durP2;ratioP2
2624;SDS011;1322;53.256;10.386;2023-12-20T00:01:02;9.40;;;2.70;;
2624;SDS011;1322;53.256;10.386;2023-12-20T00:03:28;6.17;;;2.80;;
2624;SDS011;1322;53.256;10.386;2023-12-20T00:05:54;8.73;;;2.30;;
2624;SDS011;1322;53.256;10.386;2023-12-20T00:08:20;6.40;;;2.60;;
2624;SDS011;1322;53.256;10.386;2023-12-20T00:10:46;6.90;;;2.70;;
2624;SDS011;1322;53.256;10.386;2023-12-20T00:13:11;9.07;;;2.83;;
2624;SDS011;1322;53.256;10.386;2023-12-20T00:15:37;10.07;;;2.27;;
2624;SDS011;1322;53.256;10.386;2023-12-20T00:18:03;7.37;;;3.00;;
2624;SDS011;1322;53.256;10.386;2023-12-20T00:20:29;4.47;;;1.90;;
2624;SDS011;1322;53.256;10.386;2023-12-20T00:22:58;7.80;;;2.17;;
2624;SDS011;1322;53.256;10.386;2023-12-20T00:25:23;8.43;;;2.53;;
2624;SDS011;1322;53.256;10.386;2023-12-20T00:27:50;16.90;;;2.60;;
2624;SDS011;1322;53.256;10.386;2023-12-20T00:30:15;14.77;;;3.03;;
2624;SDS011;1322;53.256;10.386;2023-12-20T00:32:41;9.67;;;3.20;;
2624;SDS011;1322;53.256;10.386;2023-12-20T00:35:15;3.97;;;1.87;;
2624;SDS011;1322;53.256;10.386;2023-12-20T00:37:42;7.30;;;1.90;;
2624;SDS011;1322;53.256;10.386;2023-12-20T00:40:08;10.17;;;2.13;;
2624;SDS011;1322;53.256;10.386;2023-12-20T00:42:34;8.50;;;2.17;;
2624;SDS011;1322;53.256;10.386;2023-12-20T00:45:01;11.70;;;3.07;;
2624;SDS011;1322;53.256;10.386;2023-12-20T00:47:27;17.77;;;3.10;;
2624;SDS011;1322;53.256;10.386;2023-12-20T00:49:53;8.90;;;2.30;;
2624;SDS011;1322;53.256;10.386;2023-12-20T00:52:19;5.27;;;2.10;;
2624;SDS011;1322;53.256;10.386;2023-12-20T00:54:45;12.00;;;2.60;;
2624;SDS011;1322;53.256;10.386;2023-12-20T00:57:10;9.17;;;2.37;;
2624;SDS011;1322;53.256;10.386;2023-12-20T00:59:36;10.77;;;2.90;;
2624;SDS011;1322;53.256;10.386;2023-12-20T01:02:02;20.03;;;3.10;;
2624;SDS011;1322;53.256;10.386;2023-12-20T01:04:27;6.87;;;2.60;;
2624;SDS011;1322;53.256;10.386;2023-12-20T01:06:53;13.57;;;2.70;;
2624;SDS011;1322;53.256;10.386;2023-12-20T01:09:19;9.43;;;3.40;;
2624;SDS011;1322;53.256;10.386;2023-12-20T01:11:44;8.60;;;2.13;;
2624;SDS011;1322;53.256;10.386;2023-12-20T01:14:11;5.57;;;1.90;;
2624;SDS011;1322;53.256;10.386;2023-12-20T01:16:37;6.93;;;2.00;;
2624;SDS011;1322;53.256;10.386;2023-12-20T01:19:03;11.70;;;2.43;;
2624;SDS011;1322;53.256;10.386;2023-12-20T01:21:28;10.93;;;2.30;;
2624;SDS011;1322;53.256;10.386;2023-12-20T01:23:54;26.97;;;3.40;;
2624;SDS011;1322;53.256;10.386;2023-12-20T01:26:19;8.07;;;2.50;;
2624;SDS011;1322;53.256;10.386;2023-12-20T01:28:45;7.73;;;2.30;;
2624;SDS011;1322;53.256;10.386;2023-12-20T01:31:11;13.90;;;3.37;;
2624;SDS011;1322;53.256;10.386;2023-12-20T01:33:36;8.73;;;2.33;;
2624;SDS011;1322;53.256;10.386;2023-12-20T01:36:02;11.20;;;2.60;;
2624;SDS011;1322;53.256;10.386;2023-12-20T01:38:28;11.73;;;2.10;;
2624;SDS011;1322;53.256;10.386;2023-12-20T01:40:54;16.10;;;2.20;;
2624;SDS011;1322;53.256;10.386;2023-12-20T01:43:20;13.83;;;2.40;;
2624;SDS011;1322;53.256;10.386;2023-12-20T01:45:46;9.00;;;2.10;;
2624;SDS011;1322;53.256;10.386;2023-12-20T01:48:12;10.37;;;2.80;;
2624;SDS011;1322;53.256;10.386;2023-12-20T01:50:39;7.60;;;2.70;;
2624;SDS011;1322;53.256;10.386;2023-12-20T01:53:05;14.00;;;2.30;;
2624;SDS011;1322;53.256;10.386;2023-12-20T01:55:33;7.20;;;2.20;;
2624;SDS011;1322;53.256;10.386;2023-12-20T01:58:03;13.80;;;2.23;;
2624;SDS011;1322;53.256;10.386;2023-12-20T02:00:29;7.87;;;1.90;;
2624;SDS011;1322;53.256;10.386;2023-12-20T02:02:56;18.70;;;2.90;;
2624;SDS011;1322;53.256;10.386;2023-12-20T02:05:25;11.00;;;3.00;;
2624;SDS011;1322;53.256;10.386;2023-12-20T02:07:52;11.90;;;2.77;;
2624;SDS011;1322;53.256;10.386;2023-12-20T02:10:18;6.90;;;3.20;;
2624;SDS011;1322;53.256;10.386;2023-12-20T02:12:44;15.10;;;3.00;;
2624;SDS011;1322;53.256;10.386;2023-12-20T02:15:09;4.73;;;2.20;;
2624;SDS011;1322;53.256;10.386;2023-12-20T02:17:35;8.53;;;2.90;;
2624;SDS011;1322;53.256;10.386;2023-12-20T02:20:01;8.37;;;2.77;;
2624;SDS011;1322;53.256;10.386;2023-12-20T02:22:27;10.77;;;2.77;;
2624;SDS011;1322;53.256;10.386;2023-12-20T02:24:53;9.67;;;2.60;;
2624;SDS011;1322;53.256;10.386;2023-12-20T02:27:19;4.63;;;2.00;;
2624;SDS011;1322;53.256;10.386;2023-12-20T02:29:45;6.67;;;2.90;;
2624;SDS011;1322;53.256;10.386;2023-12-20T02:32:13;7.13;;;2.70;;
2624;SDS011;1322;53.256;10.386;2023-12-20T02:34:39;10.60;;;3.30;;
2624;SDS011;1322;53.256;10.386;2023-12-20T02:37:04;8.37;;;3.60;;
2624;SDS011;1322;53.256;10.386;2023-12-20T02:39:30;12.63;;;3.53;;
2624;SDS011;1322;53.256;10.386;2023-12-20T02:41:56;11.93;;;3.27;;
2624;SDS011;1322;53.256;10.386;2023-12-20T02:44:21;7.13;;;3.20;;
2624;SDS011;1322;53.256;10.386;2023-12-20T02:46:47;16.43;;;3.87;;
2624;SDS011;1322;53.256;10.386;2023-12-20T02:49:12;9.83;;;4.53;;
2624;SDS011;1322;53.256;10.386;2023-12-20T02:51:38;10.80;;;3.63;;
2624;SDS011;1322;53.256;10.386;2023-12-20T02:54:04;12.83;;;3.60;;
2624;SDS011;1322;53.256;10.386;2023-12-20T02:56:30;9.70;;;3.90;;
2624;SDS011;1322;53.256;10.386;2023-12-20T02:58:57;11.50;;;4.07;;
2624;SDS011;1322;53.256;10.386;2023-12-20T03:01:22;11.30;;;4.73;;
2624;SDS011;1322;53.256;10.386;2023-12-20T03:03:48;7.97;;;4.87;;
2624;SDS011;1322;53.256;10.386;2023-12-20T03:06:17;14.70;;;4.00;;
2624;SDS011;1322;53.256;10.386;2023-12-20T03:08:43;12.10;;;4.10;;
2624;SDS011;1322;53.256;10.386;2023-12-20T03:11:09;19.77;;;4.03;;
2624;SDS011;1322;53.256;10.386;2023-12-20T03:13:35;9.47;;;4.53;;
2624;SDS011;1322;53.256;10.386;2023-12-20T03:16:01;10.13;;;4.23;;
2624;SDS011;1322;53.256;10.386;2023-12-20T03:18:32;17.63;;;5.00;;
2624;SDS011;1322;53.256;10.386;2023-12-20T03:20:58;6.67;;;3.60;;
2624;SDS011;1322;53.256;10.386;2023-12-20T03:23:23;17.90;;;4.20;;
2624;SDS011;1322;53.256;10.386;2023-12-20T03:25:49;12.80;;;3.77;;
2624;SDS011;1322;53.256;10.386;2023-12-20T03:28:15;12.27;;;3.87;;
2624;SDS011;1322;53.256;10.386;2023-12-20T03:30:41;12.23;;;3.70;;
2624;SDS011;1322;53.256;10.386;2023-12-20T03:33:06;12.80;;;3.97;;
2624;SDS011;1322;53.256;10.386;2023-12-20T03:35:32;21.67;;;4.20;;
2624;SDS011;1322;53.256;10.386;2023-12-20T03:37:58;16.23;;;4.00;;
2624;SDS011;1322;53.256;10.386;2023-12-20T03:40:25;7.40;;;3.90;;
2624;SDS011;1322;53.256;10.386;2023-12-20T03:42:51;8.00;;;3.23;;
2624;SDS011;1322;53.256;10.386;2023-12-20T03:45:16;10.03;;;2.90;;
2624;SDS011;1322;53.256;10.386;2023-12-20T03:47:42;7.43;;;3.97;;
2624;SDS011;1322;53.256;10.386;2023-12-20T03:50:07;11.73;;;2.97;;
2624;SDS011;1322;53.256;10.386;2023-12-20T03:52:33;6.90;;;2.97;;
2624;SDS011;1322;53.256;10.386;2023-12-20T03:54:59;10.10;;;2.70;;
2624;SDS011;1322;53.256;10.386;2023-12-20T03:57:24;8.70;;;2.87;;
2624;SDS011;1322;53.256;10.386;2023-12-20T03:59:50;11.50;;;3.40;;
2624;SDS011;1322;53.256;10.386;2023-12-20T04:02:15;7.93;;;2.60;;
2624;SDS011;1322;53.256;10.386;2023-12-20T04:04:43;5.73;;;2.40;;
2624;SDS011;1322;53.256;10.386;2023-12-20T04:07:08;11.43;;;2.40;;
2624;SDS011;1322;53.256;10.386;2023-12-20T04:09:34;9.10;;;2.80;;
2624;SDS011;1322;53.256;10.386;2023-12-20T04:12:00;6.73;;;2.93;;
2624;SDS011;1322;53.256;10.386;2023-12-20T04:14:25;10.20;;;2.67;;
2624;SDS011;1322;53.256;10.386;2023-12-20T04:16:51;14.90;;;3.60;;
2624;SDS011;1322;53.256;10.386;2023-12-20T04:19:17;11.37;;;2.30;;
2624;SDS011;1322;53.256;10.386;2023-12-20T04:21:43;8.73;;;2.23;;
2624;SDS011;1322;53.256;10.386;2023-12-20T04:24:08;7.53;;;2.53;;
2624;SDS011;1322;53.256;10.386;2023-12-20T04:26:34;12.10;;;3.13;;
2624;SDS011;1322;53.256;10.386;2023-12-20T04:28:59;7.63;;;2.70;;
2624;SDS011;1322;53.256;10.386;2023-12-20T04:31:25;11.53;;;3.27;;
2624;SDS011;1322;53.256;10.386;2023-12-20T04:33:50;12.90;;;3.10;;
2624;SDS011;1322;53.256;10.386;2023-12-20T04:36:16;7.50;;;2.40;;
2624;SDS011;1322;53.256;10.386;2023-12-20T04:38:42;7.77;;;3.10;;
2624;SDS011;1322;53.256;10.386;2023-12-20T04:41:07;10.40;;;2.60;;
2624;SDS011;1322;53.256;10.386;2023-12-20T04:43:33;13.40;;;3.87;;
2624;SDS011;1322;53.256;10.386;2023-12-20T04:45:58;8.63;;;2.83;;
2624;SDS011;1322;53.256;10.386;2023-12-20T04:48:24;14.60;;;3.90;;
2624;SDS011;1322;53.256;10.386;2023-12-20T04:50:50;9.80;;;3.23;;
2624;SDS011;1322;53.256;10.386;2023-12-20T04:53:15;7.20;;;3.30;;
2624;SDS011;1322;53.256;10.386;2023-12-20T04:55:41;13.60;;;3.60;;
2624;SDS011;1322;53.256;10.386;2023-12-20T04:58:06;10.80;;;2.93;;
2624;SDS011;1322;53.256;10.386;2023-12-20T05:00:32;9.10;;;3.70;;
2624;SDS011;1322;53.256;10.386;2023-12-20T05:02:57;11.47;;;3.20;;
2624;SDS011;1322;53.256;10.386;2023-12-20T05:05:23;15.80;;;3.33;;
2624;SDS011;1322;53.256;10.386;2023-12-20T05:07:48;12.80;;;3.73;;
2624;SDS011;1322;53.256;10.386;2023-12-20T05:10:14;10.37;;;2.80;;
2624;SDS011;1322;53.256;10.386;2023-12-20T05:12:40;9.57;;;3.93;;
2624;SDS011;1322;53.256;10.386;2023-12-20T05:15:06;7.40;;;2.67;;
2624;SDS011;1322;53.256;10.386;2023-12-20T05:17:35;15.83;;;4.00;;
2624;SDS011;1322;53.256;10.386;2023-12-20T05:20:00;14.63;;;3.80;;
2624;SDS011;1322;53.256;10.386;2023-12-20T05:22:26;10.33;;;3.00;;
2624;SDS011;1322;53.256;10.386;2023-12-20T05:24:52;10.03;;;3.17;;
2624;SDS011;1322;53.256;10.386;2023-12-20T05:27:18;7.60;;;2.80;;
2624;SDS011;1322;53.256;10.386;2023-12-20T05:29:44;10.27;;;3.47;;
2624;SDS011;1322;53.256;10.386;2023-12-20T05:32:10;9.40;;;4.67;;
2624;SDS011;1322;53.256;10.386;2023-12-20T05:34:35;8.73;;;3.53;;
2624;SDS011;1322;53.256;10.386;2023-12-20T05:37:01;15.53;;;3.73;;
2624;SDS011;1322;53.256;10.386;2023-12-20T05:39:28;6.27;;;2.97;;
2624;SDS011;1322;53.256;10.386;2023-12-20T05:41:53;7.87;;;3.73;;
2624;SDS011;1322;53.256;10.386;2023-12-20T05:44:19;8.80;;;3.60;;
2624;SDS011;1322;53.256;10.386;2023-12-20T05:46:44;7.30;;;3.60;;
2624;SDS011;1322;53.256;10.386;2023-12-20T05:49:10;12.60;;;3.57;;
2624;SDS011;1322;53.256;10.386;2023-12-20T05:51:36;8.60;;;2.97;;
2624;SDS011;1322;53.256;10.386;2023-12-20T05:54:01;9.70;;;3.90;;
2624;SDS011;1322;53.256;10.386;2023-12-20T05:56:27;22.17;;;4.00;;
2624;SDS011;1322;53.256;10.386;2023-12-20T05:58:52;8.10;;;2.80;;
2624;SDS011;1322;53.256;10.386;2023-12-20T06:01:18;13.07;;;3.30;;
2624;SDS011;1322;53.256;10.386;2023-12-20T06:03:44;7.37;;;3.57;;
2624;SDS011;1322;53.256;10.386;2023-12-20T06:06:11;13.90;;;3.80;;
2624;SDS011;1322;53.256;10.386;2023-12-20T06:08:38;14.70;;;4.20;;
2624;SDS011;1322;53.256;10.386;2023-12-20T06:11:03;10.00;;;4.17;;
2624;SDS011;1322;53.256;10.386;2023-12-20T06:13:30;13.40;;;4.37;;
2624;SDS011;1322;53.256;10.386;2023-12-20T06:15:56;11.17;;;3.80;;
2624;SDS011;1322;53.256;10.386;2023-12-20T06:18:21;13.67;;;4.07;;
2624;SDS011;1322;53.256;10.386;2023-12-20T06:20:47;10.30;;;3.80;;
2624;SDS011;1322;53.256;10.386;2023-12-20T06:23:13;9.23;;;4.30;;
2624;SDS011;1322;53.256;10.386;2023-12-20T06:25:38;11.83;;;5.17;;
2624;SDS011;1322;53.256;10.386;2023-12-20T06:28:04;10.60;;;4.87;;
2624;SDS011;1322;53.256;10.386;2023-12-20T06:30:30;19.33;;;5.33;;
2624;SDS011;1322;53.256;10.386;2023-12-20T06:32:57;11.23;;;3.30;;
2624;SDS011;1322;53.256;10.386;2023-12-20T06:35:23;10.77;;;4.60;;
2624;SDS011;1322;53.256;10.386;2023-12-20T06:37:49;12.57;;;5.20;;
2624;SDS011;1322;53.256;10.386;2023-12-20T06:40:14;10.30;;;4.57;;
2624;SDS011;1322;53.256;10.386;2023-12-20T06:42:41;11.43;;;4.37;;
2624;SDS011;1322;53.256;10.386;2023-12-20T06:45:07;17.70;;;4.60;;
2624;SDS011;1322;53.256;10.386;2023-12-20T06:47:32;13.70;;;4.23;;
2624;SDS011;1322;53.256;10.386;2023-12-20T06:49:58;12.07;;;3.67;;
2624;SDS011;1322;53.256;10.386;2023-12-20T06:52:24;10.43;;;4.17;;
2624;SDS011;1322;53.256;10.386;2023-12-20T06:54:49;10.07;;;4.00;;
2624;SDS011;1322;53.256;10.386;2023-12-20T06:57:15;18.47;;;5.53;;
2624;SDS011;1322;53.256;10.386;2023-12-20T06:59:41;16.93;;;4.77;;
2624;SDS011;1322;53.256;10.386;2023-12-20T07:02:08;15.57;;;3.37;;
2624;SDS011;1322;53.256;10.386;2023-12-20T07:04:34;13.07;;;3.70;;
2624;SDS011;1322;53.256;10.386;2023-12-20T07:07:04;12.60;;;3.73;;
2624;SDS011;1322;53.256;10.386;2023-12-20T07:09:29;12.83;;;3.87;;
2624;SDS011;1322;53.256;10.386;2023-12-20T07:11:55;18.37;;;4.33;;
2624;SDS011;1322;53.256;10.386;2023-12-20T07:14:20;13.03;;;3.43;;
2624;SDS011;1322;53.256;10.386;2023-12-20T07:16:46;16.37;;;4.30;;
2624;SDS011;1322;53.256;10.386;2023-12-20T07:19:12;8.43;;;3.40;;
2624;SDS011;1322;53.256;10.386;2023-12-20T07:21:38;7.03;;;3.10;;
2624;SDS011;1322;53.256;10.386;2023-12-20T07:24:03;10.70;;;3.10;;
2624;SDS011;1322;53.256;10.386;2023-12-20T07:26:29;11.87;;;4.50;;
2624;SDS011;1322;53.256;10.386;2023-12-20T07:28:55;21.10;;;4.00;;
2624;SDS011;1322;53.256;10.386;2023-12-20T07:31:20;17.13;;;4.23;;
2624;SDS011;1322;53.256;10.386;2023-12-20T07:33:46;6.90;;;3.27;;
2624;SDS011;1322;53.256;10.386;2023-12-20T07:36:12;27.07;;;4.27;;
2624;SDS011;1322;53.256;10.386;2023-12-20T07:38:37;17.97;;;3.83;;
2624;SDS011;1322;53.256;10.386;2023-12-20T07:41:03;16.13;;;6.60;;
2624;SDS011;1322;53.256;10.386;2023-12-20T07:43:29;13.57;;;5.13;;
2624;SDS011;1322;53.256;10.386;2023-12-20T07:45:54;13.33;;;4.50;;
2624;SDS011;1322;53.256;10.386;2023-12-20T07:48:20;13.50;;;3.80;;
2624;SDS011;1322;53.256;10.386;2023-12-20T07:50:46;13.53;;;3.60;;
2624;SDS011;1322;53.256;10.386;2023-12-20T07:53:11;11.57;;;3.43;;
2624;SDS011;1322;53.256;10.386;2023-12-20T07:55:37;11.33;;;3.13;;
2624;SDS011;1322;53.256;10.386;2023-12-20T07:58:03;16.23;;;3.50;;
2624;SDS011;1322;53.256;10.386;2023-12-20T08:00:30;11.70;;;3.20;;
2624;SDS011;1322;53.256;10.386;2023-12-20T08:02:55;15.10;;;3.17;;
2624;SDS011;1322;53.256;10.386;2023-12-20T08:05:21;11.93;;;3.13;;
2624;SDS011;1322;53.256;10.386;2023-12-20T08:07:46;7.60;;;3.17;;
2624;SDS011;1322;53.256;10.386;2023-12-20T08:10:12;8.03;;;4.20;;
2624;SDS011;1322;53.256;10.386;2023-12-20T08:12:38;17.60;;;4.23;;
2624;SDS011;1322;53.256;10.386;2023-12-20T08:15:05;12.83;;;3.70;;
2624;SDS011;1322;53.256;10.386;2023-12-20T08:17:31;11.23;;;2.77;;
2624;SDS011;1322;53.256;10.386;2023-12-20T08:19:56;17.60;;;3.80;;
2624;SDS011;1322;53.256;10.386;2023-12-20T08:22:22;8.10;;;3.30;;
2624;SDS011;1322;53.256;10.386;2023-12-20T08:24:48;11.00;;;4.20;;
2624;SDS011;1322;53.256;10.386;2023-12-20T08:27:14;11.67;;;3.83;;
2624;SDS011;1322;53.256;10.386;2023-12-20T08:29:39;14.33;;;3.33;;
2624;SDS011;1322;53.256;10.386;2023-12-20T08:32:05;17.87;;;4.50;;
2624;SDS011;1322;53.256;10.386;2023-12-20T08:34:30;12.53;;;3.47;;
2624;SDS011;1322;53.256;10.386;2023-12-20T08:36:56;12.53;;;4.10;;
2624;SDS011;1322;53.256;10.386;2023-12-20T08:39:22;22.43;;;5.30;;
2624;SDS011;1322;53.256;10.386;2023-12-20T08:41:47;15.00;;;4.07;;
2624;SDS011;1322;53.256;10.386;2023-12-20T08:44:13;9.27;;;2.73;;
2624;SDS011;1322;53.256;10.386;2023-12-20T08:46:39;12.10;;;4.53;;
2624;SDS011;1322;53.256;10.386;2023-12-20T08:49:04;17.23;;;4.00;;
2624;SDS011;1322;53.256;10.386;2023-12-20T08:51:30;16.20;;;5.50;;
2624;SDS011;1322;53.256;10.386;2023-12-20T08:53:56;19.57;;;5.17;;
2624;SDS011;1322;53.256;10.386;2023-12-20T08:56:21;20.50;;;4.77;;
2624;SDS011;1322;53.256;10.386;2023-12-20T08:58:47;11.30;;;3.57;;
2624;SDS011;1322;53.256;10.386;2023-12-20T09:01:13;17.93;;;4.23;;
2624;SDS011;1322;53.256;10.386;2023-12-20T09:03:39;11.80;;;3.80;;
2624;SDS011;1322;53.256;10.386;2023-12-20T09:06:05;14.70;;;3.40;;
2624;SDS011;1322;53.256;10.386;2023-12-20T09:08:31;11.33;;;3.60;;
2624;SDS011;1322;53.256;10.386;2023-12-20T09:10:57;22.03;;;4.40;;
2624;SDS011;1322;53.256;10.386;2023-12-20T09:13:23;11.13;;;4.30;;
2624;SDS011;1322;53.256;10.386;2023-12-20T09:15:56;7.93;;;3.07;;
2624;SDS011;1322;53.256;10.386;2023-12-20T09:18:23;19.17;;;4.10;;
2624;SDS011;1322;53.256;10.386;2023-12-20T09:20:49;9.63;;;3.87;;
2624;SDS011;1322;53.256;10.386;2023-12-20T09:23:14;10.10;;;2.83;;
2624;SDS011;1322;53.256;10.386;2023-12-20T09:25:40;16.90;;;4.10;;
2624;SDS011;1322;53.256;10.386;2023-12-20T09:28:06;12.33;;;4.30;;
2624;SDS011;1322;53.256;10.386;2023-12-20T09:30:31;14.77;;;3.43;;
2624;SDS011;1322;53.256;10.386;2023-12-20T09:32:57;14.90;;;4.03;;
2624;SDS011;1322;53.256;10.386;2023-12-20T09:35:23;11.47;;;3.60;;
2624;SDS011;1322;53.256;10.386;2023-12-20T09:37:49;9.70;;;3.30;;
2624;SDS011;1322;53.256;10.386;2023-12-20T09:40:14;13.40;;;3.67;;
2624;SDS011;1322;53.256;10.386;2023-12-20T09:42:48;16.77;;;4.77;;
2624;SDS011;1322;53.256;10.386;2023-12-20T09:45:23;13.70;;;6.00;;
2624;SDS011;1322;53.256;10.386;2023-12-20T09:47:53;10.00;;;3.80;;
2624;SDS011;1322;53.256;10.386;2023-12-20T09:50:21;17.43;;;5.73;;
2624;SDS011;1322;53.256;10.386;2023-12-20T09:52:49;16.27;;;5.03;;
2624;SDS011;1322;53.256;10.386;2023-12-20T09:55:17;8.70;;;3.20;;
2624;SDS011;1322;53.256;10.386;2023-12-20T09:57:44;17.30;;;4.27;;
2624;SDS011;1322;53.256;10.386;2023-12-20T10:00:10;9.30;;;3.80;;
2624;SDS011;1322;53.256;10.386;2023-12-20T10:02:37;13.00;;;3.47;;
2624;SDS011;1322;53.256;10.386;2023-12-20T10:05:07;15.40;;;2.97;;
2624;SDS011;1322;53.256;10.386;2023-12-20T10:07:37;7.57;;;2.37;;
2624;SDS011;1322;53.256;10.386;2023-12-20T10:10:02;3.50;;;1.53;;
2624;SDS011;1322;53.256;10.386;2023-12-20T10:12:29;3.60;;;1.90;;
2624;SDS011;1322;53.256;10.386;2023-12-20T10:14:56;4.03;;;1.40;;
2624;SDS011;1322;53.256;10.386;2023-12-20T10:17:22;2.40;;;1.53;;
2624;SDS011;1322;53.256;10.386;2023-12-20T10:19:49;5.57;;;1.87;;
2624;SDS011;1322;53.256;10.386;2023-12-20T10:22:14;3.40;;;1.37;;
2624;SDS011;1322;53.256;10.386;2023-12-20T10:24:40;4.17;;;1.37;;
2624;SDS011;1322;53.256;10.386;2023-12-20T10:27:07;4.10;;;1.13;;
2624;SDS011;1322;53.256;10.386;2023-12-20T10:29:36;4.47;;;1.30;;
2624;SDS011;1322;53.256;10.386;2023-12-20T10:32:21;1.70;;;0.93;;
2624;SDS011;1322;53.256;10.386;2023-12-20T10:34:51;5.03;;;1.40;;
2624;SDS011;1322;53.256;10.386;2023-12-20T10:37:17;2.53;;;1.50;;
2624;SDS011;1322;53.256;10.386;2023-12-20T10:39:43;3.73;;;1.67;;
2624;SDS011;1322;53.256;10.386;2023-12-20T10:42:13;3.90;;;1.17;;
2624;SDS011;1322;53.256;10.386;2023-12-20T10:44:40;1.67;;;1.33;;
2624;SDS011;1322;53.256;10.386;2023-12-20T10:47:06;1.93;;;1.00;;
2624;SDS011;1322;53.256;10.386;2023-12-20T10:49:36;11.90;;;1.60;;
2624;SDS011;1322;53.256;10.386;2023-12-20T10:52:04;2.07;;;0.93;;
2624;SDS011;1322;53.256;10.386;2023-12-20T10:54:31;3.63;;;0.90;;
2624;SDS011;1322;53.256;10.386;2023-12-20T10:56:58;2.90;;;1.40;;
2624;SDS011;1322;53.256;10.386;2023-12-20T10:59:24;3.50;;;0.90;;
2624;SDS011;1322;53.256;10.386;2023-12-20T11:01:52;2.00;;;1.17;;
2624;SDS011;1322;53.256;10.386;2023-12-20T11:04:25;4.60;;;1.03;;
2624;SDS011;1322;53.256;10.386;2023-12-20T11:07:01;3.00;;;1.00;;
2624;SDS011;1322;53.256;10.386;2023-12-20T11:09:40;2.13;;;1.10;;
2624;SDS011;1322;53.256;10.386;2023-12-20T11:12:15;1.50;;;0.90;;
2624;SDS011;1322;53.256;10.386;2023-12-20T11:14:46;2.10;;;1.30;;
2624;SDS011;1322;53.256;10.386;2023-12-20T11:17:14;1.40;;;0.80;;
2624;SDS011;1322;53.256;10.386;2023-12-20T11:22:24;3.00;;;1.27;;
2624;SDS011;1322;53.256;10.386;2023-12-20T11:24:50;3.67;;;1.27;;
2624;SDS011;1322;53.256;10.386;2023-12-20T11:27:18;2.40;;;0.90;;
2624;SDS011;1322;53.256;10.386;2023-12-20T11:29:51;4.57;;;1.10;;
2624;SDS011;1322;53.256;10.386;2023-12-20T11:37:37;8.50;;;1.77;;
2624;SDS011;1322;53.256;10.386;2023-12-20T11:40:08;6.97;;;1.30;;
2624;SDS011;1322;53.256;10.386;2023-12-20T11:42:43;5.20;;;1.70;;
2624;SDS011;1322;53.256;10.386;2023-12-20T11:45:14;6.97;;;3.77;;
2624;SDS011;1322;53.256;10.386;2023-12-20T11:47:42;8.00;;;2.50;;
2624;SDS011;1322;53.256;10.386;2023-12-20T11:50:10;2.90;;;1.27;;
2624;SDS011;1322;53.256;10.386;2023-12-20T11:52:35;6.00;;;1.57;;
2624;SDS011;1322;53.256;10.386;2023-12-20T11:55:01;2.47;;;1.07;;
2624;SDS011;1322;53.256;10.386;2023-12-20T11:57:28;4.27;;;1.50;;
2624;SDS011;1322;53.256;10.386;2023-12-20T11:59:54;7.97;;;2.33;;
2624;SDS011;1322;53.256;10.386;2023-12-20T12:02:21;2.60;;;1.13;;
2624;SDS011;1322;53.256;10.386;2023-12-20T12:04:48;7.03;;;1.77;;
2624;SDS011;1322;53.256;10.386;2023-12-20T12:07:14;3.10;;;1.13;;
2624;SDS011;1322;53.256;10.386;2023-12-20T12:09:39;6.40;;;1.80;;
2624;SDS011;1322;53.256;10.386;2023-12-20T12:12:05;5.97;;;1.63;;
2624;SDS011;1322;53.256;10.386;2023-12-20T12:14:31;5.47;;;2.70;;
2624;SDS011;1322;53.256;10.386;2023-12-20T12:16:57;3.80;;;2.00;;
2624;SDS011;1322;53.256;10.386;2023-12-20T12:19:23;7.00;;;1.53;;
2624;SDS011;1322;53.256;10.386;2023-12-20T12:21:50;10.87;;;1.83;;
2624;SDS011;1322;53.256;10.386;2023-12-20T12:24:19;7.07;;;1.70;;
2624;SDS011;1322;53.256;10.386;2023-12-20T12:26:51;4.67;;;1.63;;
2624;SDS011;1322;53.256;10.386;2023-12-20T12:29:17;12.10;;;2.60;;
2624;SDS011;1322;53.256;10.386;2023-12-20T12:31:42;5.47;;;1.80;;
2624;SDS011;1322;53.256;10.386;2023-12-20T12:34:08;7.20;;;2.83;;
2624;SDS011;1322;53.256;10.386;2023-12-20T12:36:34;8.90;;;1.93;;
2624;SDS011;1322;53.256;10.386;2023-12-20T12:39:02;4.10;;;1.57;;
2624;SDS011;1322;53.256;10.386;2023-12-20T12:41:29;8.53;;;1.90;;
2624;SDS011;1322;53.256;10.386;2023-12-20T12:43:55;4.30;;;1.40;;
2624;SDS011;1322;53.256;10.386;2023-12-20T12:46:21;12.00;;;2.17;;
2624;SDS011;1322;53.256;10.386;2023-12-20T12:48:46;7.13;;;1.80;;
2624;SDS011;1322;53.256;10.386;2023-12-20T12:51:12;6.00;;;1.57;;
2624;SDS011;1322;53.256;10.386;2023-12-20T12:53:38;7.13;;;1.70;;
2624;SDS011;1322;53.256;10.386;2023-12-20T12:56:05;9.07;;;2.67;;
2624;SDS011;1322;53.256;10.386;2023-12-20T12:58:31;15.50;;;3.37;;
2624;SDS011;1322;53.256;10.386;2023-12-20T13:00:57;3.63;;;1.73;;
2624;SDS011;1322;53.256;10.386;2023-12-20T13:03:22;8.43;;;2.23;;
2624;SDS011;1322;53.256;10.386;2023-12-20T13:05:49;3.70;;;1.73;;
2624;SDS011;1322;53.256;10.386;2023-12-20T13:08:15;6.60;;;2.73;;
2624;SDS011;1322;53.256;10.386;2023-12-20T13:10:40;7.30;;;2.70;;
2624;SDS011;1322;53.256;10.386;2023-12-20T13:13:06;4.63;;;1.70;;
2624;SDS011;1322;53.256;10.386;2023-12-20T13:15:31;8.83;;;3.70;;
2624;SDS011;1322;53.256;10.386;2023-12-20T13:17:57;6.27;;;2.23;;
2624;SDS011;1322;53.256;10.386;2023-12-20T13:20:22;4.90;;;2.00;;
2624;SDS011;1322;53.256;10.386;2023-12-20T13:22:48;9.80;;;2.53;;
2624;SDS011;1322;53.256;10.386;2023-12-20T13:25:16;7.30;;;2.30;;
2624;SDS011;1322;53.256;10.386;2023-12-20T13:27:42;5.90;;;2.00;;
2624;SDS011;1322;53.256;10.386;2023-12-20T13:30:08;2.90;;;1.20;;
2624;SDS011;1322;53.256;10.386;2023-12-20T13:32:34;6.20;;;1.63;;
2624;SDS011;1322;53.256;10.386;2023-12-20T13:35:00;8.23;;;2.60;;
2624;SDS011;1322;53.256;10.386;2023-12-20T13:37:26;5.83;;;1.80;;
2624;SDS011;1322;53.256;10.386;2023-12-20T13:39:51;7.00;;;2.57;;
2624;SDS011;1322;53.256;10.386;2023-12-20T13:42:17;6.70;;;1.80;;
2624;SDS011;1322;53.256;10.386;2023-12-20T13:44:42;11.97;;;3.83;;
2624;SDS011;1322;53.256;10.386;2023-12-20T13:47:09;9.37;;;2.73;;
2624;SDS011;1322;53.256;10.386;2023-12-20T13:49:34;13.50;;;2.13;;
2624;SDS011;1322;53.256;10.386;2023-12-20T13:52:00;6.30;;;2.17;;
2624;SDS011;1322;53.256;10.386;2023-12-20T13:54:26;13.53;;;2.33;;
2624;SDS011;1322;53.256;10.386;2023-12-20T13:56:51;5.70;;;1.83;;
2624;SDS011;1322;53.256;10.386;2023-12-20T13:59:17;9.07;;;1.93;;
2624;SDS011;1322;53.256;10.386;2023-12-20T14:01:45;10.97;;;2.60;;
2624;SDS011;1322;53.256;10.386;2023-12-20T14:04:10;7.53;;;3.77;;
2624;SDS011;1322;53.256;10.386;2023-12-20T14:06:36;13.97;;;2.77;;
2624;SDS011;1322;53.256;10.386;2023-12-20T14:09:02;9.93;;;2.60;;
2624;SDS011;1322;53.256;10.386;2023-12-20T14:11:28;8.40;;;4.03;;
2624;SDS011;1322;53.256;10.386;2023-12-20T14:13:54;8.23;;;2.67;;
2624;SDS011;1322;53.256;10.386;2023-12-20T14:16:26;7.17;;;3.00;;
2624;SDS011;1322;53.256;10.386;2023-12-20T14:18:51;9.87;;;3.07;;
2624;SDS011;1322;53.256;10.386;2023-12-20T14:21:17;19.73;;;3.17;;
2624;SDS011;1322;53.256;10.386;2023-12-20T14:23:44;9.40;;;3.03;;
2624;SDS011;1322;53.256;10.386;2023-12-20T14:26:11;10.27;;;2.93;;
2624;SDS011;1322;53.256;10.386;2023-12-20T14:28:42;8.83;;;3.23;;
2624;SDS011;1322;53.256;10.386;2023-12-20T14:31:08;22.23;;;3.57;;
2624;SDS011;1322;53.256;10.386;2023-12-20T14:33:35;9.90;;;3.53;;
2624;SDS011;1322;53.256;10.386;2023-12-20T14:36:03;8.63;;;3.10;;
2624;SDS011;1322;53.256;10.386;2023-12-20T14:38:30;7.43;;;2.90;;
2624;SDS011;1322;53.256;10.386;2023-12-20T14:40:56;9.40;;;2.70;;
2624;SDS011;1322;53.256;10.386;2023-12-20T14:43:22;9.27;;;3.23;;
2624;SDS011;1322;53.256;10.386;2023-12-20T14:45:48;11.33;;;2.80;;
2624;SDS011;1322;53.256;10.386;2023-12-20T14:48:14;11.87;;;3.60;;
2624;SDS011;1322;53.256;10.386;2023-12-20T14:50:40;12.10;;;3.23;;
2624;SDS011;1322;53.256;10.386;2023-12-20T14:53:07;13.10;;;3.23;;
2624;SDS011;1322;53.256;10.386;2023-12-20T14:55:33;16.17;;;3.23;;
2624;SDS011;1322;53.256;10.386;2023-12-20T14:57:59;13.37;;;3.23;;